Arapahoe, North Carolina
Current Conditions -  °F | °C
As of 1:54 AM on Saturday 20 Dec 2014 (Local Time) from KNKT Reporting Station
Clear Clear  
Wind Chill: 37°   Ceiling: Unl
Heat Index: 37°   Visibility: 10mi
Dew Point: 33°   Wind: 3mph
Humidity: 86%   Direction: 80°E
Pressure: 30.22"   Gusts: NA
Location:  35.03°N, 76.83°W
Report Text: KNKT 200654Z 08003KT 10SM CLR 03/01 A3022 RMK AO2 SLP230 T00280006 $
Loading
Personal Weather Stations






























Interactive Weather Map New forecast layout! Learn more

10-Day Weather Forecast

Advertisements
Track Severe Weather on mobile